createdAt,value
2018-05-25T00:02:19.695Z,55.10
2018-05-25T00:04:47.238Z,55.10
2018-05-25T00:07:15.083Z,55.80
2018-05-25T00:09:43.183Z,55.10
2018-05-25T00:12:10.736Z,55.10
2018-05-25T00:14:39.188Z,55.00
2018-05-25T00:17:06.777Z,55.00
2018-05-25T00:19:34.596Z,54.70
2018-05-25T00:22:02.479Z,54.70
2018-05-25T00:24:30.270Z,54.80
2018-05-25T00:26:57.965Z,54.90
2018-05-25T00:29:25.599Z,54.90
2018-05-25T00:31:53.618Z,54.90
2018-05-25T00:34:21.160Z,54.90
2018-05-25T00:36:48.784Z,55.20
2018-05-25T00:39:16.476Z,55.00
2018-05-25T00:41:44.128Z,55.10
2018-05-25T00:44:11.671Z,54.90
2018-05-25T00:46:39.503Z,54.90
2018-05-25T00:49:07.116Z,54.70
2018-05-25T00:51:35.632Z,54.80
2018-05-25T00:54:03.173Z,54.70
2018-05-25T00:56:30.724Z,54.60
2018-05-25T00:58:59.039Z,54.60
2018-05-25T01:01:27.357Z,54.60
2018-05-25T01:03:54.915Z,54.60
2018-05-25T01:06:23.743Z,54.70
2018-05-25T01:08:52.147Z,55.00
2018-05-25T01:11:20.455Z,55.30
2018-05-25T01:13:48.006Z,55.20
2018-05-25T01:16:15.588Z,55.20
2018-05-25T01:18:51.894Z,55.40
2018-05-25T01:21:20.323Z,55.90
2018-05-25T01:23:47.878Z,55.80
2018-05-25T01:26:15.487Z,56.10
2018-05-25T01:28:43.087Z,55.80
2018-05-25T01:31:10.629Z,55.70
2018-05-25T01:33:38.302Z,55.60
2018-05-25T01:36:05.839Z,55.50
2018-05-25T01:38:33.483Z,55.30
2018-05-25T01:41:01.227Z,55.70
2018-05-25T01:43:28.853Z,55.70
2018-05-25T01:45:57.115Z,55.70
2018-05-25T01:48:24.707Z,55.50
2018-05-25T01:50:52.306Z,55.30
2018-05-25T01:53:20.983Z,55.30
2018-05-25T01:55:48.543Z,55.30
2018-05-25T01:58:16.969Z,55.20
2018-05-25T02:00:44.518Z,55.20
2018-05-25T02:03:12.059Z,54.90
2018-05-25T02:05:39.694Z,55.40
2018-05-25T02:08:08.015Z,54.70
2018-05-25T02:10:36.380Z,54.60
2018-05-25T02:13:04.749Z,54.50
2018-05-25T02:15:32.318Z,54.50
2018-05-25T02:17:59.860Z,54.70
2018-05-25T02:20:27.404Z,54.50
2018-05-25T02:22:54.947Z,54.50
2018-05-25T02:25:23.255Z,54.40
2018-05-25T02:27:50.799Z,54.50
2018-05-25T02:30:18.363Z,54.40
2018-05-25T02:32:45.992Z,54.60
2018-05-25T02:35:13.551Z,54.60
2018-05-25T02:37:41.111Z,55.20
2018-05-25T02:40:08.892Z,54.50
2018-05-25T02:42:36.451Z,54.40
2018-05-25T02:45:04.756Z,54.80
2018-05-25T02:47:32.377Z,54.80
2018-05-25T02:50:00.255Z,55.00
2018-05-25T02:52:27.799Z,55.50
2018-05-25T02:54:56.115Z,56.50
2018-05-25T02:57:23.784Z,56.40
2018-05-25T02:59:52.099Z,56.20
2018-05-25T03:02:20.426Z,56.10
2018-05-25T03:04:48.004Z,56.10
2018-05-25T03:07:15.650Z,55.70
2018-05-25T03:09:43.210Z,55.30
2018-05-25T03:12:10.764Z,55.70
2018-05-25T03:14:38.411Z,54.90
2018-05-25T03:17:05.961Z,54.80
2018-05-25T03:19:33.503Z,54.80
2018-05-25T03:22:01.891Z,54.90
2018-05-25T03:24:30.549Z,54.80
2018-05-25T03:26:58.116Z,54.80
2018-05-25T03:29:25.662Z,54.80
2018-05-25T03:31:54.252Z,55.10
2018-05-25T03:34:21.792Z,55.00
2018-05-25T03:36:49.342Z,55.00
2018-05-25T03:39:16.888Z,55.00
2018-05-25T03:41:45.236Z,55.40
2018-05-25T03:44:13.543Z,55.30
2018-05-25T03:46:41.091Z,55.30
2018-05-25T03:49:08.712Z,55.30
2018-05-25T03:51:37.035Z,55.90
2018-05-25T03:54:04.595Z,55.80
2018-05-25T03:56:32.907Z,55.90
2018-05-25T03:59:12.409Z,55.80
2018-05-25T04:01:51.935Z,56.00
2018-05-25T04:04:21.459Z,55.80
2018-05-25T04:06:49.763Z,55.50
2018-05-25T04:09:17.336Z,55.50
2018-05-25T04:11:45.816Z,55.20
2018-05-25T04:14:13.426Z,55.20
2018-05-25T04:16:40.944Z,55.30
2018-05-25T04:19:08.497Z,55.20
2018-05-25T04:21:36.819Z,55.20
2018-05-25T04:24:04.413Z,55.20
2018-05-25T04:26:31.958Z,54.90
2018-05-25T04:28:59.520Z,54.80
2018-05-25T04:31:27.073Z,54.70
2018-05-25T04:33:54.808Z,54.50
2018-05-25T04:36:23.183Z,54.40
2018-05-25T04:38:50.723Z,54.40
2018-05-25T04:41:18.282Z,54.40
2018-05-25T04:43:46.096Z,54.00
2018-05-25T04:46:13.649Z,53.70
2018-05-25T04:48:41.960Z,53.50
2018-05-25T04:51:09.499Z,53.60
2018-05-25T04:53:37.044Z,53.50
2018-05-25T04:56:04.605Z,53.40
2018-05-25T04:58:32.943Z,53.30
2018-05-25T05:01:00.681Z,53.30
2018-05-25T05:03:29.000Z,53.50
2018-05-25T05:05:58.520Z,53.70
2018-05-25T05:08:26.824Z,53.70
2018-05-25T05:10:55.147Z,53.90
2018-05-25T05:13:23.156Z,53.90
2018-05-25T05:15:50.715Z,54.00
2018-05-25T05:18:18.254Z,54.30
2018-05-25T05:20:46.024Z,54.00
2018-05-25T05:23:13.571Z,53.80
2018-05-25T05:25:41.118Z,54.10
2018-05-25T05:28:09.031Z,54.10
2018-05-25T05:30:37.354Z,54.00
2018-05-25T05:33:04.903Z,53.70
2018-05-25T05:35:32.457Z,53.50
2018-05-25T05:38:00.948Z,53.60
2018-05-25T05:40:28.488Z,53.50
2018-05-25T05:42:56.822Z,53.60
2018-05-25T05:45:24.445Z,53.60
2018-05-25T05:47:52.018Z,53.60
2018-05-25T05:50:19.585Z,53.60
2018-05-25T05:52:47.145Z,53.80
2018-05-25T05:55:15.655Z,53.80
2018-05-25T05:57:44.061Z,53.70
2018-05-25T06:00:11.639Z,53.70
2018-05-25T06:02:39.968Z,53.70
2018-05-25T06:05:07.543Z,53.70
2018-05-25T06:07:35.110Z,53.50
2018-05-25T06:10:03.430Z,54.80
2018-05-25T06:12:30.984Z,54.70
2018-05-25T06:14:59.295Z,54.00
2018-05-25T06:17:27.615Z,53.90
2018-05-25T06:19:55.154Z,53.90
2018-05-25T06:22:22.918Z,53.70
2018-05-25T06:24:50.519Z,53.70
2018-05-25T06:27:18.069Z,53.50
2018-05-25T06:29:45.789Z,53.30
2018-05-25T06:32:13.347Z,53.50
2018-05-25T06:34:40.898Z,53.60
2018-05-25T06:37:09.481Z,53.80
2018-05-25T06:39:37.037Z,53.60
2018-05-25T06:42:04.579Z,52.60
2018-05-25T06:44:32.171Z,52.70
2018-05-25T06:46:59.753Z,52.80
2018-05-25T06:49:27.300Z,52.90
2018-05-25T06:51:54.940Z,52.90
2018-05-25T06:54:22.557Z,52.30
2018-05-25T06:56:50.159Z,52.40
2018-05-25T06:59:17.720Z,52.40
2018-05-25T07:01:45.488Z,51.70
2018-05-25T07:04:13.069Z,51.50
2018-05-25T07:06:40.612Z,50.80
2018-05-25T07:09:08.934Z,51.30
2018-05-25T07:11:36.480Z,51.20
2018-05-25T07:14:04.059Z,50.60
2018-05-25T07:16:32.432Z,50.70
2018-05-25T07:18:59.988Z,50.50
2018-05-25T07:21:27.591Z,49.70
2018-05-25T07:23:55.128Z,49.80
2018-05-25T07:26:22.918Z,50.20
2018-05-25T07:28:50.480Z,49.70
2018-05-25T07:31:18.032Z,49.70
2018-05-25T07:33:46.177Z,48.60
2018-05-25T07:36:14.489Z,49.20
2018-05-25T07:38:42.031Z,49.20
2018-05-25T07:41:09.595Z,48.50
2018-05-25T07:43:37.153Z,48.00
2018-05-25T07:46:05.469Z,47.40
2018-05-25T07:48:33.779Z,47.70
2018-05-25T07:51:01.421Z,47.70
2018-05-25T07:53:28.973Z,47.50
2018-05-25T07:55:56.549Z,47.90
2018-05-25T07:58:24.527Z,47.50
2018-05-25T08:00:52.093Z,47.10
2018-05-25T08:03:20.404Z,47.10
2018-05-25T08:05:48.019Z,47.00
2018-05-25T08:08:15.817Z,46.70
2018-05-25T08:10:43.371Z,46.90
2018-05-25T08:13:11.690Z,46.50
2018-05-25T08:15:39.316Z,46.50
2018-05-25T08:18:06.864Z,46.50
2018-05-25T08:20:34.444Z,46.30
2018-05-25T08:23:02.053Z,45.50
2018-05-25T08:25:29.645Z,44.90
2018-05-25T08:27:57.202Z,45.90
2018-05-25T08:30:24.759Z,44.80
2018-05-25T08:32:52.330Z,43.90
2018-05-25T08:35:20.684Z,44.00
2018-05-25T08:37:48.276Z,44.00
2018-05-25T08:40:15.937Z,42.30
2018-05-25T08:42:43.478Z,41.70
2018-05-25T08:45:11.792Z,42.20
2018-05-25T08:47:40.129Z,42.50
2018-05-25T08:50:07.832Z,42.40
2018-05-25T08:52:35.378Z,42.80
2018-05-25T08:55:03.018Z,42.50
2018-05-25T08:57:30.708Z,42.40
2018-05-25T08:59:58.245Z,39.90
2018-05-25T09:02:25.792Z,40.70
2018-05-25T09:04:54.324Z,41.70
2018-05-25T09:07:21.865Z,41.70
2018-05-25T09:09:49.422Z,40.20
2018-05-25T09:12:16.991Z,41.10
2018-05-25T09:14:44.523Z,40.50
2018-05-25T09:17:12.088Z,39.60
2018-05-25T09:19:40.433Z,38.20
2018-05-25T09:22:08.411Z,38.30
2018-05-25T09:24:35.978Z,39.30
2018-05-25T09:27:03.563Z,38.20
2018-05-25T09:29:33.002Z,37.80
2018-05-25T09:32:00.586Z,37.70
2018-05-25T09:34:28.161Z,38.10
2018-05-25T09:36:55.756Z,38.70
2018-05-25T09:39:23.578Z,38.60
2018-05-25T09:41:51.158Z,39.20
2018-05-25T09:44:18.736Z,38.90
2018-05-25T09:46:46.372Z,38.80
2018-05-25T09:49:14.719Z,39.40
2018-05-25T09:51:42.301Z,39.10
2018-05-25T09:54:09.893Z,38.40
2018-05-25T09:56:38.887Z,39.20
2018-05-25T09:59:06.467Z,38.60
2018-05-25T10:01:34.040Z,38.00
2018-05-25T10:04:02.493Z,39.80
2018-05-25T10:06:30.439Z,39.70
2018-05-25T10:08:58.782Z,38.50
2018-05-25T10:11:26.370Z,38.50
2018-05-25T10:13:53.949Z,38.50
2018-05-25T10:16:21.511Z,38.10
2018-05-25T10:18:49.095Z,36.80
2018-05-25T10:21:16.761Z,37.50
2018-05-25T10:23:45.112Z,35.90
2018-05-25T10:26:13.115Z,35.90
2018-05-25T10:28:40.708Z,35.00
2018-05-25T10:31:08.340Z,35.10
2018-05-25T10:33:36.671Z,34.50
2018-05-25T10:36:04.231Z,34.40
2018-05-25T10:38:32.571Z,33.10
2018-05-25T10:41:00.203Z,33.00
2018-05-25T10:43:27.748Z,34.30
2018-05-25T10:45:55.335Z,34.10
2018-05-25T10:48:22.960Z,33.80
2018-05-25T10:50:51.299Z,33.70
2018-05-25T10:53:18.974Z,33.60
2018-05-25T10:55:46.736Z,32.90
2018-05-25T10:58:15.125Z,32.80
2018-05-25T11:00:42.689Z,32.80
2018-05-25T11:03:10.269Z,33.20
2018-05-25T11:05:38.057Z,33.90
2018-05-25T11:08:05.650Z,34.30
2018-05-25T11:10:33.215Z,33.80
2018-05-25T11:13:00.782Z,34.00
2018-05-25T11:15:29.266Z,34.30
2018-05-25T11:17:57.595Z,35.10
2018-05-25T11:20:25.147Z,35.10
2018-05-25T11:22:53.600Z,35.70
2018-05-25T11:25:21.160Z,35.60
2018-05-25T11:27:48.730Z,36.10
2018-05-25T11:30:17.106Z,33.30
2018-05-25T11:32:44.696Z,33.30
2018-05-25T11:35:12.324Z,32.90
2018-05-25T11:37:39.947Z,34.00
2018-05-25T11:40:07.659Z,34.30
2018-05-25T11:42:35.232Z,34.70
2018-05-25T11:45:02.791Z,34.10
2018-05-25T11:47:30.403Z,33.80
2018-05-25T11:49:58.022Z,34.20
2018-05-25T11:52:26.367Z,34.00
2018-05-25T11:54:53.938Z,33.90
2018-05-25T11:57:21.548Z,33.20
2018-05-25T11:59:49.112Z,31.60
2018-05-25T12:02:16.718Z,32.50
2018-05-25T12:04:44.287Z,31.50
2018-05-25T12:07:12.051Z,32.80
2018-05-25T12:09:39.755Z,32.70
2018-05-25T12:12:07.443Z,33.90
2018-05-25T12:14:35.314Z,34.10
2018-05-25T12:17:02.860Z,34.00
2018-05-25T12:19:31.953Z,33.00
2018-05-25T12:21:59.520Z,33.00
2018-05-25T12:24:27.090Z,33.00
2018-05-25T12:26:54.664Z,32.80
2018-05-25T12:29:22.264Z,32.20
2018-05-25T12:31:49.929Z,32.40
2018-05-25T12:34:17.506Z,32.30
2018-05-25T12:36:45.063Z,31.90
2018-05-25T12:39:12.636Z,32.10
2018-05-25T12:41:41.864Z,31.00
2018-05-25T12:44:10.290Z,31.50
2018-05-25T12:46:37.970Z,31.50
2018-05-25T12:49:05.528Z,30.10
2018-05-25T12:51:33.846Z,31.00
2018-05-25T12:54:02.250Z,31.00
2018-05-25T12:56:29.821Z,31.00
2018-05-25T12:58:57.371Z,31.20
2018-05-25T13:01:24.996Z,30.70
2018-05-25T13:03:53.368Z,30.00
2018-05-25T13:06:20.944Z,30.00
2018-05-25T13:08:48.512Z,31.20
2018-05-25T13:11:16.152Z,30.70
2018-05-25T13:13:44.477Z,30.80
2018-05-25T13:16:12.040Z,30.70
2018-05-25T13:18:40.387Z,28.60
2018-05-25T13:21:08.298Z,28.50
2018-05-25T13:23:35.849Z,28.60
2018-05-25T13:26:03.411Z,28.60
2018-05-25T13:28:31.296Z,28.80
2018-05-25T13:30:59.624Z,28.50
2018-05-25T13:33:29.207Z,28.50
2018-05-25T13:35:56.832Z,28.40
2018-05-25T13:38:24.532Z,27.80
2018-05-25T13:40:52.099Z,28.30
2018-05-25T13:43:19.671Z,28.40
2018-05-25T13:45:47.559Z,28.30
2018-05-25T13:48:15.217Z,27.20
2018-05-25T13:50:42.803Z,27.10
2018-05-25T13:53:10.370Z,28.00
2018-05-25T13:55:38.807Z,28.40
2018-05-25T13:58:06.380Z,28.40
2018-05-25T14:00:33.950Z,27.20
2018-05-25T14:03:01.627Z,27.80
2018-05-25T14:05:29.948Z,27.00
2018-05-25T14:07:57.511Z,27.00
2018-05-25T14:10:25.074Z,27.00
2018-05-25T14:12:52.658Z,27.40
2018-05-25T14:15:20.216Z,27.20
2018-05-25T14:17:47.792Z,27.30
2018-05-25T14:20:15.431Z,27.40
2018-05-25T14:22:43.771Z,26.70
2018-05-25T14:25:11.331Z,26.60
2018-05-25T14:27:39.814Z,26.40
2018-05-25T14:30:07.397Z,26.40
2018-05-25T14:32:34.961Z,26.20
2018-05-25T14:35:02.775Z,26.60
2018-05-25T14:37:30.611Z,26.00
2018-05-25T14:39:58.173Z,26.40
2018-05-25T14:42:26.501Z,27.60
2018-05-25T14:44:54.108Z,27.60
2018-05-25T14:47:21.696Z,27.90
2018-05-25T14:49:49.252Z,28.30
2018-05-25T14:52:16.818Z,28.80
2018-05-25T14:54:50.947Z,29.80
2018-05-25T14:57:19.281Z,30.20
2018-05-25T14:59:46.933Z,30.10
2018-05-25T15:02:15.373Z,31.20
2018-05-25T15:04:43.671Z,30.90
2018-05-25T15:07:11.224Z,30.80
2018-05-25T15:09:39.781Z,31.00
2018-05-25T15:12:08.331Z,31.20
2018-05-25T15:14:36.660Z,31.10
2018-05-25T15:17:04.229Z,31.10
2018-05-25T15:19:32.574Z,31.00
2018-05-25T15:22:00.149Z,30.90
2018-05-25T15:24:27.707Z,30.30
2018-05-25T15:26:56.036Z,31.10
2018-05-25T15:29:23.829Z,31.10
2018-05-25T15:31:51.398Z,31.10
2018-05-25T15:34:19.209Z,31.50
2018-05-25T15:36:46.940Z,32.20
2018-05-25T15:39:14.498Z,31.90
2018-05-25T15:41:42.105Z,32.60
2018-05-25T15:44:09.844Z,32.50
2018-05-25T15:46:37.433Z,32.90
2018-05-25T15:49:04.999Z,33.20
2018-05-25T15:51:32.671Z,33.00
2018-05-25T15:54:00.240Z,32.70
2018-05-25T15:56:28.634Z,31.90
2018-05-25T15:58:56.135Z,31.90
2018-05-25T16:01:31.438Z,31.90
2018-05-25T16:03:58.998Z,31.90
2018-05-25T16:06:26.565Z,31.70
2018-05-25T16:08:54.969Z,30.40
2018-05-25T16:11:23.485Z,31.30
2018-05-25T16:13:51.820Z,31.40
2018-05-25T16:16:19.409Z,31.40
2018-05-25T16:18:47.029Z,31.10
2018-05-25T16:21:14.595Z,30.90
2018-05-25T16:23:42.184Z,31.40
2018-05-25T16:26:09.783Z,31.40
2018-05-25T16:28:37.347Z,31.50
2018-05-25T16:31:04.906Z,31.90
2018-05-25T16:33:32.600Z,32.80
2018-05-25T16:36:00.176Z,33.10
2018-05-25T16:38:27.732Z,32.90
2018-05-25T16:40:56.072Z,32.50
2018-05-25T16:43:23.860Z,32.50
2018-05-25T16:45:51.655Z,33.40
2018-05-25T16:48:19.211Z,33.30
2018-05-25T16:50:46.836Z,32.80
2018-05-25T16:53:14.424Z,32.90
2018-05-25T16:55:41.991Z,32.90
2018-05-25T16:58:09.774Z,32.50
2018-05-25T17:00:37.326Z,33.00
2018-05-25T17:03:05.669Z,33.70
2018-05-25T17:05:33.223Z,33.70
2018-05-25T17:08:00.939Z,34.10
2018-05-25T17:10:28.492Z,34.30
2018-05-25T17:12:56.161Z,33.70
2018-05-25T17:15:23.727Z,34.50
2018-05-25T17:17:51.332Z,33.90
2018-05-25T17:20:18.877Z,33.90
2018-05-25T17:22:46.598Z,34.10
2018-05-25T17:25:14.225Z,34.50
2018-05-25T17:27:42.535Z,34.80
2018-05-25T17:30:10.097Z,34.80
2018-05-25T17:32:37.643Z,34.40
2018-05-25T17:35:05.199Z,34.20
2018-05-25T17:37:32.738Z,34.30
2018-05-25T17:40:00.288Z,34.80
2018-05-25T17:42:27.865Z,34.40
2018-05-25T17:44:55.523Z,34.70
2018-05-25T17:47:24.382Z,34.80
2018-05-25T17:49:51.937Z,34.80
2018-05-25T17:52:19.476Z,35.00
2018-05-25T17:54:47.075Z,34.70
2018-05-25T17:57:15.476Z,34.50
2018-05-25T17:59:43.799Z,34.70
2018-05-25T18:02:11.332Z,34.50
2018-05-25T18:04:38.928Z,34.70
2018-05-25T18:07:06.468Z,34.60
2018-05-25T18:09:34.024Z,35.10
2018-05-25T18:12:01.814Z,35.30
2018-05-25T18:14:30.119Z,35.10
2018-05-25T18:16:58.422Z,35.90
2018-05-25T18:19:25.970Z,35.30
2018-05-25T18:21:53.587Z,35.40
2018-05-25T18:24:21.923Z,35.70
2018-05-25T18:26:49.451Z,35.60
2018-05-25T18:29:17.133Z,35.80
2018-05-25T18:31:44.669Z,36.00
2018-05-25T18:34:12.204Z,36.00
2018-05-25T18:36:39.964Z,36.80
2018-05-25T18:39:07.503Z,36.50
2018-05-25T18:41:35.063Z,36.60
2018-05-25T18:44:03.531Z,36.80
2018-05-25T18:46:31.155Z,36.90
2018-05-25T18:48:58.689Z,37.30
2018-05-25T18:51:26.233Z,38.10
2018-05-25T18:54:06.477Z,37.30
2018-05-25T18:56:34.040Z,37.30
2018-05-25T18:59:02.047Z,37.90
2018-05-25T19:01:29.607Z,37.50
2018-05-25T19:03:57.156Z,38.10
2018-05-25T19:06:24.792Z,38.70
2018-05-25T19:08:52.334Z,38.00
2018-05-25T19:11:20.664Z,38.90
2018-05-25T19:13:48.204Z,38.90
2018-05-25T19:16:15.807Z,39.20
2018-05-25T19:18:44.111Z,39.80
2018-05-25T19:21:12.425Z,40.40
2018-05-25T19:23:40.078Z,40.40
2018-05-25T19:26:07.646Z,40.40
2018-05-25T19:28:35.275Z,40.80
2018-05-25T19:31:03.589Z,41.30
2018-05-25T19:33:31.274Z,41.30
2018-05-25T19:35:58.815Z,41.90
2018-05-25T19:38:26.355Z,42.00
2018-05-25T19:40:53.980Z,42.00
2018-05-25T19:43:21.583Z,42.40
2018-05-25T19:45:49.131Z,42.50
2018-05-25T19:48:16.872Z,42.70
2018-05-25T19:50:45.177Z,43.10
2018-05-25T19:53:13.478Z,43.10
2018-05-25T19:55:41.785Z,43.30
2018-05-25T19:58:10.121Z,43.50
2018-05-25T20:00:37.640Z,43.40
2018-05-25T20:03:05.187Z,43.50
2018-05-25T20:05:32.795Z,43.50
2018-05-25T20:08:00.363Z,44.00
2018-05-25T20:10:27.904Z,44.20
2018-05-25T20:12:55.770Z,44.10
2018-05-25T20:15:23.351Z,44.00
2018-05-25T20:17:50.897Z,44.10
2018-05-25T20:20:18.445Z,44.10
2018-05-25T20:22:46.865Z,44.30
2018-05-25T20:25:14.404Z,44.30
2018-05-25T20:27:41.964Z,44.60
2018-05-25T20:30:09.562Z,44.70
2018-05-25T20:32:37.159Z,44.70
2018-05-25T20:35:04.783Z,45.30
2018-05-25T20:37:33.101Z,44.80
2018-05-25T20:40:00.676Z,44.80
2018-05-25T20:42:28.232Z,44.90
2018-05-25T20:44:56.541Z,45.30
2018-05-25T20:47:25.567Z,45.30
2018-05-25T20:49:54.033Z,45.60
2018-05-25T20:52:21.581Z,45.50
2018-05-25T20:54:49.124Z,45.70
2018-05-25T20:57:17.524Z,46.00
2018-05-25T20:59:45.102Z,45.80
2018-05-25T21:02:12.645Z,46.40
2018-05-25T21:04:40.194Z,46.10
2018-05-25T21:07:08.742Z,46.20
2018-05-25T21:09:36.289Z,46.20
2018-05-25T21:12:04.597Z,47.00
2018-05-25T21:14:32.315Z,46.40
2018-05-25T21:16:59.861Z,46.50
2018-05-25T21:19:28.183Z,46.70
2018-05-25T21:21:55.724Z,46.80
2018-05-25T21:24:23.300Z,46.70
2018-05-25T21:26:50.844Z,46.90
2018-05-25T21:29:18.385Z,47.10
2018-05-25T21:31:46.789Z,47.30
2018-05-25T21:34:15.116Z,48.00
2018-05-25T21:36:42.676Z,47.40
2018-05-25T21:39:10.241Z,47.40
2018-05-25T21:41:37.798Z,47.40
2018-05-25T21:44:05.340Z,47.30
2018-05-25T21:46:33.649Z,47.70
2018-05-25T21:49:01.196Z,47.60
2018-05-25T21:51:28.736Z,47.70
2018-05-25T21:53:56.276Z,47.90
2018-05-25T21:56:24.742Z,48.10
2018-05-25T21:58:52.320Z,48.10
2018-05-25T22:01:19.864Z,48.20
2018-05-25T22:03:48.228Z,48.20
2018-05-25T22:06:16.580Z,48.20
2018-05-25T22:08:44.120Z,48.20
2018-05-25T22:11:11.663Z,48.30
2018-05-25T22:13:39.223Z,48.50
2018-05-25T22:16:06.784Z,48.40
2018-05-25T22:18:34.333Z,48.40
2018-05-25T22:21:02.017Z,48.70
2018-05-25T22:23:29.562Z,48.70
2018-05-25T22:25:57.886Z,48.90
2018-05-25T22:28:25.426Z,48.70
2018-05-25T22:30:52.979Z,48.80
2018-05-25T22:33:20.541Z,48.90
2018-05-25T22:35:48.086Z,48.90
2018-05-25T22:38:16.968Z,49.10
2018-05-25T22:40:45.276Z,49.10
2018-05-25T22:43:24.919Z,49.10
2018-05-25T22:46:04.286Z,49.00
2018-05-25T22:48:43.765Z,49.20
2018-05-25T22:51:23.736Z,49.30
2018-05-25T22:53:56.606Z,49.30
2018-05-25T22:56:24.157Z,49.40
2018-05-25T22:58:51.767Z,49.50
2018-05-25T23:01:20.094Z,49.70
2018-05-25T23:03:47.778Z,49.60
2018-05-25T23:06:15.345Z,49.80
2018-05-25T23:08:43.675Z,49.70
2018-05-25T23:11:11.224Z,49.70
2018-05-25T23:13:39.688Z,49.70
2018-05-25T23:16:07.245Z,49.70
2018-05-25T23:18:34.822Z,49.90
2018-05-25T23:21:03.150Z,50.20
2018-05-25T23:23:30.956Z,50.10
2018-05-25T23:25:58.489Z,50.20
2018-05-25T23:28:26.036Z,50.30
2018-05-25T23:30:53.635Z,50.30
2018-05-25T23:33:21.952Z,50.50
2018-05-25T23:35:49.499Z,50.50
2018-05-25T23:38:17.231Z,50.50
2018-05-25T23:40:44.770Z,50.50
2018-05-25T23:43:12.327Z,50.70
2018-05-25T23:45:40.023Z,50.60
2018-05-25T23:48:07.575Z,50.70
2018-05-25T23:50:35.120Z,50.70
2018-05-25T23:53:03.715Z,50.70
2018-05-25T23:55:31.343Z,50.90
2018-05-25T23:57:58.892Z,50.90
